createdAt,value
2022-10-20T00:01:24.362Z,99471.56
2022-10-20T00:03:52.828Z,99474.63
2022-10-20T00:06:21.799Z,99466.22
2022-10-20T00:08:50.032Z,99473.69
2022-10-20T00:11:20.607Z,99478.25
2022-10-20T00:13:51.957Z,99474.59
2022-10-20T00:16:20.988Z,99473.19
2022-10-20T00:18:48.623Z,99465.69
2022-10-20T00:21:22.716Z,99478.88
2022-10-20T00:23:51.126Z,99473.53
2022-10-20T00:26:21.181Z,99476.63
2022-10-20T00:28:49.915Z,99467.00
2022-10-20T00:31:20.063Z,99472.34
2022-10-20T00:33:48.020Z,99485.94
2022-10-20T00:36:19.190Z,99476.22
2022-10-20T00:38:47.357Z,99476.06
2022-10-20T00:41:17.731Z,99485.88
2022-10-20T00:43:51.506Z,99470.00
2022-10-20T00:46:43.980Z,99470.31
2022-10-20T00:49:23.526Z,99472.88
2022-10-20T00:51:54.441Z,99468.47
2022-10-20T00:54:26.848Z,99466.19
2022-10-20T00:56:57.000Z,99470.88
2022-10-20T00:59:33.098Z,99471.53
2022-10-20T01:02:02.582Z,99473.69
2022-10-20T01:04:32.206Z,99470.78
2022-10-20T01:07:00.412Z,99474.22
2022-10-20T01:09:28.415Z,99475.31
2022-10-20T01:12:23.676Z,99476.13
2022-10-20T01:15:08.272Z,99475.53
2022-10-20T01:18:08.797Z,99466.84
2022-10-20T01:21:01.048Z,99466.31
2022-10-20T01:24:03.637Z,99479.47
2022-10-20T01:26:36.930Z,99476.75
2022-10-20T01:29:28.974Z,99475.47
2022-10-20T01:32:18.867Z,99467.00
2022-10-20T01:35:32.926Z,99467.72
2022-10-20T01:38:31.200Z,99471.84
2022-10-20T01:41:46.411Z,99479.28
2022-10-20T01:44:18.593Z,99487.97
2022-10-20T01:46:48.046Z,99486.44
2022-10-20T01:49:16.540Z,99479.66
2022-10-20T01:51:44.110Z,99478.16
2022-10-20T01:54:44.454Z,99479.13
2022-10-20T01:57:59.643Z,99481.91
2022-10-20T02:00:27.523Z,99491.28
2022-10-20T02:03:29.936Z,99487.06
2022-10-20T02:06:29.947Z,99490.84
2022-10-20T02:09:07.199Z,99485.09
2022-10-20T02:11:48.091Z,99485.84
2022-10-20T02:14:20.371Z,99486.84
2022-10-20T02:16:54.512Z,99495.47
2022-10-20T02:19:26.502Z,99497.69
2022-10-20T02:21:56.520Z,99502.69
2022-10-20T02:24:32.051Z,99499.38
2022-10-20T02:27:04.635Z,99498.19
2022-10-20T02:29:41.550Z,99506.50
2022-10-20T02:32:11.993Z,99510.03
2022-10-20T02:34:42.404Z,99503.94
2022-10-20T02:37:10.815Z,99497.28
2022-10-20T02:39:38.423Z,99510.22
2022-10-20T02:42:06.699Z,99506.81
2022-10-20T02:44:34.174Z,99519.56
2022-10-20T02:47:01.631Z,99523.56
2022-10-20T02:49:29.130Z,99522.06
2022-10-20T02:51:56.744Z,99514.81
2022-10-20T02:54:24.223Z,99518.13
2022-10-20T02:56:51.665Z,99524.59
2022-10-20T02:59:19.227Z,99529.59
2022-10-20T03:01:47.237Z,99531.97
2022-10-20T03:04:14.902Z,99533.00
2022-10-20T03:06:42.460Z,99535.50
2022-10-20T03:09:10.029Z,99537.44
2022-10-20T03:11:37.471Z,99534.94
2022-10-20T03:14:05.082Z,99535.25
2022-10-20T03:16:32.531Z,99549.94
2022-10-20T03:19:03.977Z,99554.88
2022-10-20T03:21:34.145Z,99549.66
2022-10-20T03:24:01.689Z,99559.09
2022-10-20T03:26:29.164Z,99560.16
2022-10-20T03:28:56.647Z,99568.22
2022-10-20T03:31:24.109Z,99561.50
2022-10-20T03:33:51.665Z,99562.28
2022-10-20T03:36:19.199Z,99565.16
2022-10-20T03:38:46.650Z,99563.13
2022-10-20T03:41:14.323Z,99568.44
2022-10-20T03:43:42.127Z,99571.56
2022-10-20T03:46:11.932Z,99572.53
2022-10-20T03:48:40.334Z,99574.59
2022-10-20T03:51:11.772Z,99584.34
2022-10-20T03:53:39.402Z,99575.19
2022-10-20T03:56:10.123Z,99584.78
2022-10-20T03:58:37.613Z,99582.81
2022-10-20T04:01:06.807Z,99580.22
2022-10-20T04:03:34.224Z,99577.50
2022-10-20T04:06:01.742Z,99579.84
2022-10-20T04:08:29.248Z,99576.03
2022-10-20T04:10:58.474Z,99574.22
2022-10-20T04:13:25.953Z,99573.84
2022-10-20T04:15:53.444Z,99575.63
2022-10-20T04:18:20.976Z,99576.81
2022-10-20T04:20:49.051Z,99563.53
2022-10-20T04:23:16.538Z,99569.56
2022-10-20T04:25:48.536Z,99557.81
2022-10-20T04:28:18.259Z,99559.72
2022-10-20T04:30:47.092Z,99559.84
2022-10-20T04:33:14.963Z,99554.94
2022-10-20T04:35:42.998Z,99547.13
2022-10-20T04:38:10.479Z,99541.66
2022-10-20T04:40:37.938Z,99543.84
2022-10-20T04:43:05.389Z,99547.69
2022-10-20T04:45:32.867Z,99555.44
2022-10-20T04:48:00.364Z,99557.47
2022-10-20T04:50:27.797Z,99559.66
2022-10-20T04:53:09.935Z,99562.53
2022-10-20T04:55:37.773Z,99564.59
2022-10-20T04:58:05.191Z,99573.75
2022-10-20T05:00:32.645Z,99574.84
2022-10-20T05:03:00.168Z,99578.66
2022-10-20T05:05:27.907Z,99577.31
2022-10-20T05:07:55.344Z,99576.59
2022-10-20T05:10:22.797Z,99587.66
2022-10-20T05:12:50.306Z,99585.72
2022-10-20T05:15:17.757Z,99598.19
2022-10-20T05:17:45.207Z,99595.50
2022-10-20T05:20:12.661Z,99600.88
2022-10-20T05:22:40.191Z,99596.66
2022-10-20T05:25:31.406Z,99602.19
2022-10-20T05:27:55.723Z,99611.94
2022-10-20T05:30:23.167Z,99603.34
2022-10-20T05:32:50.610Z,99605.94
2022-10-20T05:35:18.065Z,99623.56
2022-10-20T05:37:46.294Z,99618.84
2022-10-20T05:40:13.981Z,99615.00
2022-10-20T05:42:41.441Z,99629.16
2022-10-20T05:45:09.694Z,99635.03
2022-10-20T05:47:37.354Z,99625.47
2022-10-20T05:50:05.333Z,99616.19
2022-10-20T05:52:35.603Z,99617.69
2022-10-20T05:55:05.017Z,99612.44
2022-10-20T05:57:32.512Z,99613.03
2022-10-20T05:59:59.967Z,99613.94
2022-10-20T06:02:27.550Z,99633.47
2022-10-20T06:04:55.006Z,99630.06
2022-10-20T06:07:22.452Z,99651.13
2022-10-20T06:09:49.913Z,99642.81
2022-10-20T06:12:17.451Z,99638.47
2022-10-20T06:14:44.945Z,99648.44
2022-10-20T06:17:12.415Z,99642.56
2022-10-20T06:19:39.874Z,99639.06
2022-10-20T06:22:07.335Z,99640.03
2022-10-20T06:24:35.073Z,99655.88
2022-10-20T06:27:02.508Z,99653.84
2022-10-20T06:29:29.975Z,99661.63
2022-10-20T06:31:57.431Z,99671.59
2022-10-20T06:34:26.231Z,99677.03
2022-10-20T06:36:53.911Z,99677.19
2022-10-20T06:39:24.170Z,99669.81
2022-10-20T06:41:54.843Z,99667.13
2022-10-20T06:44:24.478Z,99661.63
2022-10-20T06:46:52.621Z,99674.88
2022-10-20T06:49:20.994Z,99678.69
2022-10-20T06:51:49.480Z,99670.56
2022-10-20T06:54:18.140Z,99676.06
2022-10-20T06:56:45.657Z,99681.06
2022-10-20T06:59:13.133Z,99679.91
2022-10-20T07:01:40.808Z,99676.75
2022-10-20T07:04:13.473Z,99683.78
2022-10-20T07:06:43.839Z,99675.81
2022-10-20T07:09:19.309Z,99668.19
2022-10-20T07:11:51.875Z,99679.06
2022-10-20T07:14:20.232Z,99678.09
2022-10-20T07:16:47.724Z,99661.94
2022-10-20T07:19:15.784Z,99670.16
2022-10-20T07:21:45.674Z,99659.84
2022-10-20T07:24:14.264Z,99670.50
2022-10-20T07:26:42.735Z,99653.94
2022-10-20T07:29:11.392Z,99651.78
2022-10-20T07:31:47.884Z,99644.66
2022-10-20T07:34:25.628Z,99639.84
2022-10-20T07:36:55.446Z,99638.66
2022-10-20T07:39:23.722Z,99645.53
2022-10-20T07:41:51.464Z,99643.97
2022-10-20T07:44:19.916Z,99641.72
2022-10-20T07:46:47.468Z,99634.03
2022-10-20T07:52:02.415Z,99641.56
2022-10-20T07:54:29.983Z,99643.78
2022-10-20T07:56:57.667Z,99625.66
2022-10-20T07:59:25.145Z,99632.44
2022-10-20T08:01:55.896Z,99640.31
2022-10-20T08:04:25.008Z,99638.78
2022-10-20T08:06:52.523Z,99623.97
2022-10-20T08:09:19.827Z,99620.22
2022-10-20T08:11:50.357Z,99624.59
2022-10-20T08:14:20.440Z,99618.38
2022-10-20T08:22:12.979Z,99601.94
2022-10-20T08:24:40.615Z,99592.41
2022-10-20T08:27:08.139Z,99611.72
2022-10-20T08:29:37.215Z,99613.72
2022-10-20T08:32:05.778Z,99617.66
2022-10-20T08:34:33.446Z,99615.22
2022-10-20T08:37:00.914Z,99618.16
2022-10-20T08:39:28.451Z,99628.31
2022-10-20T08:42:08.491Z,99623.88
2022-10-20T08:44:40.056Z,99623.94
2022-10-20T08:47:40.847Z,99622.50
2022-10-20T08:50:16.118Z,99603.06
2022-10-20T08:52:47.618Z,99602.84
2022-10-20T08:55:29.202Z,99596.47
2022-10-20T08:58:03.471Z,99599.59
2022-10-20T09:00:35.690Z,99587.78
2022-10-20T09:03:14.626Z,99591.13
2022-10-20T09:05:46.731Z,99621.91
2022-10-20T09:08:14.368Z,99598.31
2022-10-20T09:10:52.616Z,99596.06
2022-10-20T09:13:31.007Z,99592.44
2022-10-20T09:16:40.501Z,99588.50
2022-10-20T09:19:22.585Z,99621.47
2022-10-20T09:21:57.491Z,99635.09
2022-10-20T09:24:30.731Z,99624.25
2022-10-20T09:27:21.702Z,99624.34
2022-10-20T09:29:49.703Z,99611.81
2022-10-20T09:32:46.180Z,99602.63
2022-10-20T09:35:36.425Z,99606.31
2022-10-20T09:38:09.758Z,99592.84
2022-10-20T09:40:54.794Z,99599.00
2022-10-20T09:43:22.562Z,99591.84
2022-10-20T09:46:06.292Z,99587.81
2022-10-20T09:48:47.894Z,99589.19
2022-10-20T09:51:22.602Z,99570.66
2022-10-20T09:53:54.185Z,99563.00
2022-10-20T09:56:36.906Z,99577.72
2022-10-20T09:59:22.360Z,99578.47
2022-10-20T10:02:15.797Z,99581.25
2022-10-20T10:04:47.195Z,99581.25
2022-10-20T10:07:26.521Z,99575.00
2022-10-20T10:10:05.682Z,99575.22
2022-10-20T10:12:36.490Z,99568.47
2022-10-20T10:15:36.071Z,99577.00
2022-10-20T10:18:21.584Z,99553.88
2022-10-20T10:21:06.980Z,99535.44
2022-10-20T10:23:49.494Z,99550.41
2022-10-20T10:26:45.960Z,99550.69
2022-10-20T10:29:25.166Z,99546.72
2022-10-20T10:32:24.210Z,99550.72
2022-10-20T10:35:08.166Z,99540.44
2022-10-20T10:37:40.364Z,99541.75
2022-10-20T10:40:20.916Z,99550.28
2022-10-20T10:43:16.751Z,99546.38
2022-10-20T10:45:52.424Z,99523.31
2022-10-20T10:48:45.823Z,99537.56
2022-10-20T10:52:21.494Z,99555.66
2022-10-20T10:55:48.695Z,99518.16
2022-10-20T10:58:19.624Z,99525.00
2022-10-20T11:01:19.941Z,99556.19
2022-10-20T11:04:28.559Z,99554.78
2022-10-20T11:07:40.047Z,99516.25
2022-10-20T11:10:44.390Z,99538.56
2022-10-20T11:13:32.716Z,99546.22
2022-10-20T11:16:42.392Z,99520.44
2022-10-20T11:19:44.052Z,99505.28
2022-10-20T11:22:30.102Z,99524.00
2022-10-20T11:25:25.795Z,99497.00
2022-10-20T11:27:57.506Z,99486.56
2022-10-20T11:30:27.437Z,99495.56
2022-10-20T11:33:20.856Z,99489.56
2022-10-20T11:36:10.962Z,99486.59
2022-10-20T11:38:53.843Z,99491.28
2022-10-20T11:41:35.291Z,99510.31
2022-10-20T11:44:13.504Z,99500.69
2022-10-20T11:47:14.600Z,99492.78
2022-10-20T11:49:43.439Z,99491.44
2022-10-20T11:53:00.515Z,99494.41
2022-10-20T11:56:23.052Z,99493.84
2022-10-20T11:59:49.575Z,99509.13
2022-10-20T12:02:29.490Z,99532.66
2022-10-20T12:05:12.842Z,99530.53
2022-10-20T12:08:17.600Z,99517.16
2022-10-20T12:11:05.846Z,99506.91
2022-10-20T12:14:06.740Z,99512.22
2022-10-20T12:16:52.220Z,99510.91
2022-10-20T12:19:30.078Z,99504.38
2022-10-20T12:22:26.470Z,99510.19
2022-10-20T12:24:53.775Z,99508.75
2022-10-20T12:27:27.670Z,99504.66
2022-10-20T12:30:38.153Z,99500.78
2022-10-20T12:33:46.443Z,99503.88
2022-10-20T12:36:34.776Z,99497.19
2022-10-20T12:39:15.929Z,99499.13
2022-10-20T12:41:57.484Z,99499.75
2022-10-20T12:44:28.679Z,99501.94
2022-10-20T12:47:05.353Z,99496.16
2022-10-20T12:49:34.695Z,99500.75
2022-10-20T12:52:07.394Z,99493.75
2022-10-20T12:54:48.449Z,99489.75
2022-10-20T12:57:38.436Z,99481.81
2022-10-20T13:00:08.668Z,99490.31
2022-10-20T13:02:52.023Z,99490.34
2022-10-20T13:05:19.422Z,99482.44
2022-10-20T13:07:49.663Z,99491.16
2022-10-20T13:10:39.002Z,99485.44
2022-10-20T13:13:06.366Z,99492.75
2022-10-20T13:15:44.888Z,99495.75
2022-10-20T13:18:12.588Z,99492.75
2022-10-20T13:21:16.128Z,99492.59
2022-10-20T13:23:54.386Z,99490.56
2022-10-20T13:26:31.123Z,99482.97
2022-10-20T13:29:01.713Z,99484.56
2022-10-20T13:31:58.181Z,99497.06
2022-10-20T13:35:02.384Z,99496.16
2022-10-20T13:37:56.563Z,99489.50
2022-10-20T13:41:03.397Z,99493.34
2022-10-20T13:44:09.880Z,99485.31
2022-10-20T13:46:56.146Z,99492.19
2022-10-20T13:49:29.415Z,99488.69
2022-10-20T13:52:11.431Z,99492.72
2022-10-20T13:54:45.715Z,99481.09
2022-10-20T13:57:29.099Z,99481.56
2022-10-20T14:00:19.676Z,99476.03
2022-10-20T14:03:17.888Z,99479.94
2022-10-20T14:05:45.347Z,99479.28
2022-10-20T14:08:17.829Z,99483.63
2022-10-20T14:11:00.114Z,99483.28
2022-10-20T14:13:34.429Z,99477.56
2022-10-20T14:16:07.424Z,99470.00
2022-10-20T14:18:39.681Z,99479.94
2022-10-20T14:21:19.101Z,99473.06
2022-10-20T14:23:50.230Z,99470.91
2022-10-20T14:26:22.587Z,99473.34
2022-10-20T14:28:52.977Z,99471.00
2022-10-20T14:31:25.343Z,99478.06
2022-10-20T14:33:53.703Z,99472.19
2022-10-20T14:36:24.648Z,99470.00
2022-10-20T14:39:04.207Z,99466.66
2022-10-20T14:41:35.928Z,99465.13
2022-10-20T14:44:16.246Z,99464.34
2022-10-20T14:46:50.735Z,99460.56
2022-10-20T14:49:23.698Z,99461.28
2022-10-20T14:51:59.910Z,99463.38
2022-10-20T14:54:32.579Z,99459.84
2022-10-20T14:57:30.811Z,99453.22
2022-10-20T15:00:25.332Z,99456.91
2022-10-20T15:02:56.896Z,99458.72
2022-10-20T15:05:42.263Z,99456.69
2022-10-20T15:08:17.692Z,99452.53
2022-10-20T15:10:46.154Z,99455.88
2022-10-20T15:13:31.569Z,99448.44
2022-10-20T15:16:02.301Z,99455.72
2022-10-20T15:18:30.633Z,99456.50
2022-10-20T15:20:58.067Z,99461.69
2022-10-20T15:23:29.649Z,99459.31
2022-10-20T15:26:04.894Z,99460.59
2022-10-20T15:28:50.936Z,99473.59
2022-10-20T15:31:28.395Z,99472.41
2022-10-20T15:33:58.050Z,99464.59
2022-10-20T15:36:33.679Z,99463.19
2022-10-20T15:39:02.970Z,99475.81
2022-10-20T15:41:33.818Z,99470.94
2022-10-20T15:44:16.151Z,99472.75
2022-10-20T15:46:47.167Z,99471.44
2022-10-20T15:49:14.862Z,99470.94
2022-10-20T15:51:46.301Z,99470.63
2022-10-20T15:54:20.602Z,99471.28
2022-10-20T15:56:48.630Z,99469.00
2022-10-20T15:59:16.057Z,99472.28
2022-10-20T16:01:43.740Z,99480.78
2022-10-20T16:04:28.660Z,99488.94
2022-10-20T16:06:58.864Z,99481.44
2022-10-20T16:09:27.944Z,99476.50
2022-10-20T16:11:55.464Z,99474.22
2022-10-20T16:14:22.973Z,99475.53
2022-10-20T16:16:50.552Z,99467.34
2022-10-20T16:19:18.021Z,99473.22
2022-10-20T16:21:45.557Z,99474.03
2022-10-20T16:24:12.954Z,99469.13
2022-10-20T16:26:40.488Z,99467.78
2022-10-20T16:29:07.925Z,99481.84
2022-10-20T16:31:35.397Z,99474.81
2022-10-20T16:34:02.882Z,99478.56
2022-10-20T16:36:30.287Z,99475.59
2022-10-20T16:38:57.965Z,99475.25
2022-10-20T16:41:25.425Z,99479.41
2022-10-20T16:43:55.404Z,99480.94
2022-10-20T16:46:25.033Z,99497.16
2022-10-20T16:48:52.471Z,99499.00
2022-10-20T16:51:19.985Z,99504.84
2022-10-20T16:53:48.298Z,99506.63
2022-10-20T16:56:19.833Z,99512.97
2022-10-20T16:58:49.430Z,99512.06
2022-10-20T17:01:19.649Z,99517.25
2022-10-20T17:03:52.629Z,99522.09
2022-10-20T17:06:23.956Z,99517.47
2022-10-20T17:08:53.114Z,99516.09
2022-10-20T17:11:28.930Z,99515.78
2022-10-20T17:13:57.685Z,99506.31
2022-10-20T17:16:30.075Z,99508.53
2022-10-20T17:19:00.322Z,99511.00
2022-10-20T17:21:30.894Z,99509.06
2022-10-20T17:23:58.984Z,99513.75
2022-10-20T17:26:30.545Z,99508.78
2022-10-20T17:29:01.517Z,99500.84
2022-10-20T17:31:29.599Z,99510.72
2022-10-20T17:34:00.611Z,99510.13
2022-10-20T17:36:30.124Z,99524.56
2022-10-20T17:39:02.217Z,99514.38
2022-10-20T17:41:30.124Z,99517.94
2022-10-20T17:44:01.289Z,99517.72
2022-10-20T17:46:28.988Z,99519.16
2022-10-20T17:48:56.534Z,99514.75
2022-10-20T17:51:28.942Z,99526.66
2022-10-20T17:53:59.386Z,99518.69
2022-10-20T17:56:31.450Z,99528.66
2022-10-20T17:59:02.900Z,99521.81
2022-10-20T18:01:34.310Z,99515.84
2022-10-20T18:04:05.557Z,99512.28
2022-10-20T18:06:35.499Z,99515.63
2022-10-20T18:09:13.073Z,99517.44
2022-10-20T18:11:45.812Z,99515.97
2022-10-20T18:14:13.782Z,99519.16
2022-10-20T18:16:41.719Z,99522.34
2022-10-20T18:19:18.333Z,99512.75
2022-10-20T18:21:46.217Z,99511.53
2022-10-20T18:24:15.790Z,99514.31
2022-10-20T18:26:44.657Z,99515.72
2022-10-20T18:29:14.695Z,99522.41
2022-10-20T18:31:45.209Z,99532.28
2022-10-20T18:34:22.661Z,99523.97
2022-10-20T18:36:53.703Z,99520.97
2022-10-20T18:39:21.225Z,99527.97
2022-10-20T18:41:52.286Z,99525.22
2022-10-20T18:44:20.744Z,99522.88
2022-10-20T18:46:48.077Z,99517.00
2022-10-20T18:49:21.555Z,99518.41
2022-10-20T18:51:49.918Z,99523.06
2022-10-20T18:54:21.378Z,99517.63
2022-10-20T18:56:48.848Z,99517.78
2022-10-20T18:59:17.230Z,99524.66
2022-10-20T19:01:45.301Z,99526.75
2022-10-20T19:04:13.194Z,99521.81
2022-10-20T19:06:47.622Z,99520.31
2022-10-20T19:09:19.948Z,99523.19
2022-10-20T19:14:18.039Z,99518.81
2022-10-20T19:16:47.053Z,99512.38
2022-10-20T19:19:15.722Z,99518.84
2022-10-20T19:21:43.299Z,99513.38
2022-10-20T19:24:19.363Z,99517.78
2022-10-20T19:26:57.450Z,99518.19
2022-10-20T19:29:35.968Z,99528.19
2022-10-20T19:32:06.170Z,99527.28
2022-10-20T19:34:37.819Z,99526.22
2022-10-20T19:37:06.562Z,99518.13
2022-10-20T19:39:39.264Z,99524.44
2022-10-20T19:42:09.202Z,99518.69
2022-10-20T19:44:37.929Z,99520.88
2022-10-20T19:47:06.417Z,99529.38
2022-10-20T19:49:34.060Z,99527.75
2022-10-20T19:52:01.623Z,99528.84
2022-10-20T19:54:29.291Z,99517.44
2022-10-20T19:56:56.994Z,99517.75
2022-10-20T19:59:25.031Z,99515.41
2022-10-20T20:01:52.759Z,99521.72
2022-10-20T20:04:20.665Z,99529.13
2022-10-20T20:06:48.388Z,99528.84
2022-10-20T20:09:16.480Z,99529.94
2022-10-20T20:11:44.580Z,99527.19
2022-10-20T20:14:19.019Z,99525.72
2022-10-20T20:16:47.628Z,99531.03
2022-10-20T20:19:17.199Z,99521.59
2022-10-20T20:21:46.004Z,99525.97
2022-10-20T20:24:14.753Z,99522.56
2022-10-20T20:26:44.442Z,99531.72
2022-10-20T20:29:12.047Z,99529.28
2022-10-20T20:31:39.459Z,99530.22
2022-10-20T20:34:06.897Z,99523.25
2022-10-20T20:36:34.440Z,99526.09
2022-10-20T20:39:02.238Z,99525.03
2022-10-20T20:41:33.041Z,99535.13
2022-10-20T20:44:04.265Z,99528.59
2022-10-20T20:46:36.305Z,99529.25
2022-10-20T20:49:03.726Z,99527.31
2022-10-20T20:51:33.837Z,99527.97
2022-10-20T20:54:03.373Z,99533.44
2022-10-20T20:56:31.500Z,99537.75
2022-10-20T20:58:58.933Z,99535.22
2022-10-20T21:01:28.978Z,99546.44
2022-10-20T21:04:03.592Z,99550.75
2022-10-20T21:06:49.553Z,99547.78
2022-10-20T21:09:20.136Z,99544.94
2022-10-20T21:11:49.101Z,99551.22
2022-10-20T21:14:16.594Z,99554.34
2022-10-20T21:16:44.234Z,99563.19
2022-10-20T21:19:11.799Z,99556.28
2022-10-20T21:21:44.309Z,99555.31
2022-10-20T21:24:13.001Z,99556.19
2022-10-20T21:26:40.600Z,99552.19
2022-10-20T21:29:08.155Z,99545.75
2022-10-20T21:31:36.372Z,99551.06
2022-10-20T21:34:05.599Z,99550.34
2022-10-20T21:36:35.502Z,99540.94
2022-10-20T21:39:06.343Z,99538.34
2022-10-20T21:41:36.155Z,99547.25
2022-10-20T21:44:06.227Z,99542.25
2022-10-20T21:46:42.000Z,99534.03
2022-10-20T21:49:15.991Z,99529.25
2022-10-20T21:51:53.694Z,99534.84
2022-10-20T21:54:25.167Z,99535.03
2022-10-20T21:56:54.010Z,99535.13
2022-10-20T21:59:30.386Z,99536.06
2022-10-20T22:02:01.626Z,99529.84
2022-10-20T22:04:30.346Z,99527.28
2022-10-20T22:06:59.557Z,99524.25
2022-10-20T22:09:28.224Z,99527.03
2022-10-20T22:11:58.417Z,99518.81
2022-10-20T22:14:26.307Z,99508.81
2022-10-20T22:16:55.575Z,99513.88
2022-10-20T22:19:25.302Z,99508.44
2022-10-20T22:21:54.122Z,99517.53
2022-10-20T22:24:22.706Z,99504.84
2022-10-20T22:26:51.692Z,99510.59
2022-10-20T22:29:21.546Z,99509.44
2022-10-20T22:31:50.067Z,99509.22
2022-10-20T22:34:17.825Z,99514.72
2022-10-20T22:36:45.361Z,99508.81
2022-10-20T22:39:14.032Z,99509.41
2022-10-20T22:41:41.528Z,99507.28
2022-10-20T22:44:09.849Z,99505.97
2022-10-20T22:46:37.360Z,99495.75
2022-10-20T22:49:04.885Z,99498.75
2022-10-20T22:51:32.402Z,99497.22
2022-10-20T22:53:59.884Z,99496.63
2022-10-20T22:56:27.367Z,99489.66
2022-10-20T22:58:55.414Z,99493.91
2022-10-20T23:01:23.985Z,99491.53
2022-10-20T23:03:52.189Z,99504.50
2022-10-20T23:06:24.517Z,99489.91
2022-10-20T23:08:55.768Z,99486.34
2022-10-20T23:11:24.062Z,99488.00
2022-10-20T23:13:52.050Z,99486.25
2022-10-20T23:16:20.694Z,99487.06
2022-10-20T23:18:48.427Z,99486.69
2022-10-20T23:21:15.994Z,99480.56
2022-10-20T23:23:45.090Z,99482.34
2022-10-20T23:26:13.131Z,99477.59
2022-10-20T23:28:40.855Z,99474.44
2022-10-20T23:31:14.257Z,99473.16
2022-10-20T23:33:44.214Z,99481.31
2022-10-20T23:36:14.090Z,99478.84
2022-10-20T23:38:42.925Z,99483.31
2022-10-20T23:41:10.913Z,99482.41
2022-10-20T23:43:38.881Z,99480.31
2022-10-20T23:46:07.047Z,99474.31
2022-10-20T23:48:35.418Z,99479.13
2022-10-20T23:51:02.960Z,99481.34
2022-10-20T23:53:30.956Z,99486.88
2022-10-20T23:55:58.386Z,99488.66
2022-10-20T23:58:26.242Z,99482.41
